Latest Weather Observations for Mullion

IDN60801

Issued at 8:42 pm EDT Monday 25 March 2019 (issued every 10 minutes, with the page automatically refreshed every 10 minutes)

About weather observations | Map of weather stations | Latest weather observations for NSW | Other Formats
Station Details ID: 250070 Name: PORTABLE RFSACT02 Lat: -35.11 Lon: 148.85 Height: 750.0 m
Data from the previous 72 hours. | See also: Recent months for locations in New South Wales
Date/Time
EDT
Temp
°C
App
Temp
°C
Dew
Point
°C
Rel
Hum
%
Delta-T
°C
Wind Press
QNH
hPa
Press
MSL
hPa
Rain since
9am
mm
Dir  Spd
km/h
Gust
km/h
Spd
kts
Gust
kts
25/08:10pm 13.2 7.1 9.8 80 1.8 WNW 32 39 17 21 - - 1.4
25/08:00pm 13.3 6.2 9.5 78 2.0 WNW 37 43 20 23 - - 1.4
25/07:50pm 13.3 5.8 9.6 78 2.0 WNW 39 44 21 24 - - 1.4
25/07:40pm 13.4 5.9 9.6 78 2.0 WNW 39 44 21 24 - - 1.4
25/07:30pm 13.5 6.4 9.6 77 2.1 WNW 37 43 20 23 - - 1.4
25/07:20pm 13.7 5.8 9.5 76 2.2 WNW 41 48 22 26 - - 1.4
25/07:10pm 14.0 5.6 9.0 72 2.6 WNW 43 57 23 31 - - 1.4
25/07:00pm 14.1 6.0 8.7 70 2.8 WNW 41 48 22 26 - - 1.4
25/06:50pm 14.3 5.7 8.8 69 2.9 WNW 44 57 24 31 - - 1.4
25/06:40pm 14.5 5.1 8.7 68 3.1 W 48 56 26 30 - - 1.4
25/06:30pm 14.6 3.8 9.1 69 2.9 W 56 65 30 35 - - 1.4
25/06:20pm 14.6 3.6 9.3 70 2.8 W 57 67 31 36 - - 1.4
25/06:10pm 14.6 5.1 9.7 72 2.6 W 50 61 27 33 - - 1.4
25/06:00pm 14.7 5.2 9.7 72 2.7 W 50 56 27 30 - - 1.4
25/05:50pm 14.7 4.4 9.6 71 2.7 W 54 57 29 31 - - 1.4
25/05:40pm 14.9 2.9 9.6 70 2.8 W 63 70 34 38 - - 1.4
25/05:30pm 14.9 3.3 9.6 70 2.8 W 61 69 33 37 - - 1.4
25/05:20pm 14.9 2.9 9.7 71 2.8 W 63 74 34 40 - - 1.4
25/05:10pm 14.8 3.7 10.2 74 2.5 W 59 65 32 35 - - 1.4
25/05:00pm 14.6 3.9 10.2 75 2.4 W 57 65 31 35 - - 1.4
25/04:50pm 14.3 2.7 9.9 75 2.4 WNW 61 65 33 35 - - 1.4
25/04:40pm 14.4 0.9 10.4 77 2.2 W 72 82 39 44 - - 1.4
25/04:30pm 14.5 1.5 11.0 79 1.9 W 70 76 38 41 - - 1.4
25/04:20pm 14.4 2.1 11.5 83 1.6 W 67 78 36 42 - - 1.4
25/04:10pm 14.4 1.7 11.9 85 1.4 W 70 78 38 42 - - 1.4
25/04:00pm 14.7 4.5 11.9 83 1.6 W 57 65 31 35 - - 1.4
25/03:50pm 14.6 4.0 11.8 83 1.6 W 59 63 32 34 - - 1.4
25/03:40pm 14.5 3.6 12.1 85 1.4 W 61 69 33 37 - - 1.4
25/03:30pm 14.6 3.0 12.4 87 1.2 W 65 74 35 40 - - 1.4
25/03:20pm 14.9 3.7 12.5 85 1.4 W 63 72 34 39 - - 1.4
25/03:10pm 15.3 8.0 13.5 89 1.0 W 44 50 24 27 - - 1.4
25/03:00pm 15.2 5.8 14.0 92 0.7 WNW 56 65 30 35 - - 1.4
25/02:50pm 15.5 6.9 14.1 91 0.8 WNW 52 61 28 33 - - 1.4
25/02:40pm 15.5 7.2 13.9 90 0.9 WNW 50 57 27 31 - - 1.4
25/02:30pm 15.4 7.1 13.9 91 0.9 WNW 50 61 27 33 - - 1.4
25/02:20pm 15.2 7.7 13.9 92 0.8 WNW 46 52 25 28 - - 1.4
25/02:10pm 15.0 7.4 13.7 92 0.8 WNW 46 54 25 29 - - 1.4
25/02:00pm 15.6 8.9 13.4 87 1.3 WNW 41 48 22 26 - - 1.2
25/01:50pm 15.8 8.1 13.2 84 1.5 WNW 46 54 25 29 - - 1.2
25/01:40pm 16.0 8.2 13.0 82 1.7 WNW 46 54 25 29 - - 1.2
25/01:30pm 15.7 8.3 13.0 84 1.6 WNW 44 50 24 27 - - 1.2
25/01:20pm 15.8 6.6 13.4 86 1.4 WNW 54 67 29 36 - - 1.2
25/01:10pm 16.0 6.6 13.8 87 1.3 WNW 56 70 30 38 - - 1.2
25/01:00pm 16.3 8.0 14.9 91 0.8 WNW 52 57 28 31 - - 1.2
25/12:50pm 16.0 8.7 15.6 97 0.2 WNW 48 54 26 29 - - 1.2
25/12:40pm 15.9 9.4 15.6 98 0.2 WNW 44 50 24 27 - - 1.2
25/12:30pm 15.7 8.7 15.4 98 0.2 WNW 46 50 25 27 - - 1.2
25/12:20pm 15.7 8.4 15.5 99 0.1 NW 48 56 26 30 - - 1.2
25/12:10pm 15.6 7.1 15.4 99 0.1 NW 54 61 29 33 - - 1.2
25/12:00pm 15.5 7.4 15.3 99 0.1 NW 52 61 28 33 - - 1.2
25/11:50am 15.6 8.6 15.4 99 0.1 NW 46 52 25 28 - - 1.2
25/11:40am 15.5 7.4 15.3 99 0.1 NW 52 57 28 31 - - 1.2
25/11:30am 15.4 8.0 15.2 99 0.1 NW 48 52 26 28 - - 1.0
25/11:20am 15.3 7.8 15.1 99 0.1 NW 48 57 26 31 - - 1.0
25/11:10am 15.2 6.2 15.0 99 0.1 NW 56 61 30 33 - - 0.8
25/11:00am 15.2 6.5 14.9 98 0.2 NW 54 59 29 32 - - 0.8
25/10:50am 15.1 6.4 14.9 99 0.1 NW 54 57 29 31 - - 0.8
25/10:40am 15.2 7.3 14.9 98 0.2 NW 50 54 27 29 - - 0.6
25/10:30am 15.1 7.2 14.8 98 0.2 NW 50 54 27 29 - - 0.6
25/10:20am 15.2 8.4 14.9 98 0.2 NW 44 54 24 29 - - 0.6
25/10:10am 15.1 8.5 14.8 98 0.2 NW 43 50 23 27 - - 0.6
25/10:00am 15.1 8.5 14.8 98 0.2 NW 43 52 23 28 - - 3.8
25/09:50am 15.1 8.8 14.7 97 0.2 NW 41 48 22 26 - - 3.8
25/09:40am 15.1 7.9 14.7 97 0.2 NW 46 50 25 27 - - 3.8
25/09:30am 15.0 8.1 14.6 97 0.2 NW 44 48 24 26 - - 3.6
25/09:20am 15.1 8.2 14.5 96 0.4 NW 44 48 24 26 - - 3.4
25/09:10am 15.1 8.3 14.4 96 0.4 NW 43 52 23 28 - - 3.2
25/09:00am 15.1 7.8 14.5 96 0.4 NW 46 52 25 28 - - 3.2
25/08:50am 15.0 8.1 14.6 97 0.2 NW 44 52 24 28 - - 3.2
25/08:40am 15.0 8.2 14.7 98 0.2 NW 44 52 24 28 - - 3.2
25/08:30am 15.0 7.4 14.7 98 0.2 NW 48 54 26 29 - - 3.2
25/08:20am 14.9 7.7 14.7 99 0.1 NW 46 50 25 27 - - 3.2
25/08:10am 14.9 7.3 14.7 99 0.1 NW 48 56 26 30 - - 3.2
25/08:00am 15.0 8.2 14.7 98 0.2 NW 44 50 24 27 - - 3.2
25/07:50am 15.0 8.3 14.7 98 0.2 NW 43 50 23 27 - - 3.2
25/07:40am 14.9 6.9 14.7 99 0.1 NW 50 54 27 29 - - 3.2
25/07:30am 15.0 8.2 14.8 99 0.1 NW 44 48 24 26 - - 3.2
25/07:20am 15.0 7.8 14.8 99 0.1 NW 46 50 25 27 - - 3.2
25/07:10am 15.1 8.5 14.8 98 0.2 NW 43 50 23 27 - - 3.2
25/07:00am 15.1 7.9 14.8 98 0.2 NW 46 52 25 28 - - 3.2
25/06:50am 15.0 7.4 14.8 99 0.1 NW 48 52 26 28 - - 3.2
25/06:40am 15.0 6.3 14.7 98 0.2 NW 54 56 29 30 - - 2.8
25/06:30am 15.0 7.0 14.7 98 0.2 NW 50 59 27 32 - - 2.4
25/06:20am 15.1 6.4 14.8 98 0.2 NW 54 56 29 30 - - 2.0
25/06:10am 15.1 6.4 14.8 98 0.2 NW 54 61 29 33 - - 1.8
25/06:00am 15.3 6.6 14.9 97 0.2 NW 54 57 29 31 - - 1.4
25/05:50am 15.3 6.6 14.9 97 0.2 NW 54 59 29 32 - - 1.2
25/05:40am 15.4 7.9 14.9 97 0.3 NW 48 54 26 29 - - 1.0
25/05:30am 15.5 7.6 14.9 96 0.4 NW 50 56 27 30 - - 0.8
25/05:20am 15.6 7.0 15.1 97 0.3 NW 54 57 29 31 - - 0.6
25/05:00am 15.9 8.9 15.3 96 0.4 NW 46 54 25 29 - - 0.4
25/04:50am 16.1 10.0 15.2 94 0.5 NW 41 46 22 25 - - 0.2
25/04:40am 16.1 10.0 15.1 94 0.6 NW 41 50 22 27 - - 0.2
25/04:30am 16.0 10.3 15.1 94 0.5 NW 39 44 21 24 - - 0.2
25/04:20am 15.9 10.2 15.2 96 0.4 NW 39 43 21 23 - - 0.2
25/04:10am 15.9 10.2 15.1 95 0.5 NW 39 43 21 23 - - 0.2
25/04:00am 16.0 10.6 15.1 94 0.5 NW 37 41 20 22 - - 0.2
25/03:50am 16.1 11.1 15.0 93 0.7 NW 35 37 19 20 - - 0.2
25/03:40am 16.1 11.4 14.9 93 0.7 NW 33 35 18 19 - - 0.2
25/03:30am 16.1 11.0 14.9 93 0.7 NW 35 37 19 20 - - 0.2
25/03:20am 16.2 11.5 14.9 92 0.8 NW 33 39 18 21 - - 0.2
25/03:10am 16.4 10.9 14.8 90 1.0 NW 37 43 20 23 - - 0.2
25/03:00am 16.6 11.1 14.6 88 1.2 NW 37 43 20 23 - - 0.2
25/02:50am 16.8 11.2 14.5 86 1.4 WNW 37 41 20 22 - - 0.2
25/02:40am 16.7 11.2 14.6 87 1.2 WNW 37 46 20 25 - - 0.2
25/02:30am 16.6 11.8 14.6 88 1.2 WNW 33 41 18 22 - - 0.2
25/02:20am 16.6 11.8 14.6 88 1.2 WNW 33 37 18 20 - - 0.2
25/02:10am 16.5 11.4 14.8 90 1.0 NW 35 37 19 20 - - 0.2
25/02:00am 16.6 11.9 14.8 89 1.1 NW 33 43 18 23 - - 0.2
25/01:50am 16.9 10.2 14.5 86 1.4 WNW 43 46 23 25 - - 0.2
25/01:40am 16.8 9.5 14.5 86 1.4 WNW 46 52 25 28 - - 0.2
25/01:30am 16.9 11.3 14.5 86 1.4 WNW 37 44 20 24 - - 0.2
25/01:20am 16.8 12.0 14.6 87 1.3 WNW 33 39 18 21 - - 0.2
25/01:10am 16.8 12.1 14.4 86 1.4 WNW 32 37 17 20 - - 0.2
25/01:00am 16.2 12.1 15.0 93 0.7 NW 30 32 16 17 - - 0.2
25/12:50am 16.1 11.5 15.2 94 0.5 NW 33 35 18 19 - - 0.2
25/12:40am 16.1 11.5 15.2 94 0.5 NW 33 35 18 19 - - 0.2
25/12:30am 16.1 11.2 15.2 94 0.5 NW 35 39 19 21 - - 0.2
25/12:20am 16.1 11.6 15.3 95 0.5 NW 33 39 18 21 - - 0.2
25/12:10am 16.1 11.8 15.3 95 0.5 NW 32 35 17 19 - - 0.2
25/12:00am 16.1 10.8 15.4 96 0.4 NW 37 43 20 23 - - 0.2
 
Date/Time
EDT
Temp
°C
App
Temp
°C
Dew
Point
°C
Rel
Hum
%
Delta-T
°C
Wind Press
QNH
hPa
Press
MSL
hPa
Rain since
9am
mm
Dir  Spd
km/h
Gust
km/h
Spd
kts
Gust
kts
24/11:50pm 16.2 10.2 15.4 95 0.5 NW 41 46 22 25 - - 0.2
24/11:40pm 16.3 10.7 15.6 96 0.4 NW 39 41 21 22 - - 0.2
24/11:30pm 16.3 11.5 15.6 96 0.4 NW 35 41 19 22 - - 0.2
24/11:20pm 16.5 11.3 15.6 94 0.5 NW 37 41 20 22 - - 0.2
24/11:10pm 16.7 12.4 15.5 93 0.7 NW 32 33 17 18 - - 0.0
24/11:00pm 16.8 11.9 15.4 91 0.8 NW 35 39 19 21 - - 0.0
24/10:50pm 17.0 11.3 15.2 89 1.1 NW 39 44 21 24 - - 0.0
24/10:40pm 17.2 12.2 15.1 87 1.3 NW 35 39 19 21 - - 0.0
24/10:30pm 17.4 12.0 14.9 85 1.5 NW 37 43 20 23 - - 0.0
24/10:20pm 17.6 11.6 14.5 82 1.8 NW 39 46 21 25 - - 0.0
24/10:10pm 17.9 11.5 14.2 79 2.2 NW 41 46 22 25 - - 0.0
24/10:00pm 18.0 12.2 14.0 77 2.4 NW 37 37 20 20 - - 0.0
24/09:50pm 18.2 12.3 13.7 75 2.7 NW 37 43 20 23 - - 0.0
24/09:40pm 18.4 13.4 13.9 75 2.7 NW 33 37 18 20 - - 0.0
24/09:30pm 18.6 13.8 14.1 75 2.7 NW 32 37 17 20 - - 0.0
24/09:20pm 18.7 15.2 14.4 76 2.6 NW 26 30 14 16 - - 0.0
24/09:00pm 18.9 14.6 14.3 74 2.7 NW 30 35 16 19 - - 0.0
24/08:50pm 19.1 14.8 14.3 73 2.9 NW 30 33 16 18 - - 0.0
24/08:40pm 19.2 15.4 13.7 70 3.3 NW 26 30 14 16 - - 0.0
24/08:30pm 19.3 15.9 13.8 70 3.3 NW 24 30 13 16 - - 0.0
24/08:20pm 19.4 15.7 13.9 70 3.3 NW 26 30 14 16 - - 0.0
24/08:10pm 19.5 15.5 14.0 70 3.3 NW 28 33 15 18 - - 0.0
24/08:00pm 19.5 15.5 14.2 71 3.2 NW 28 32 15 17 - - 0.0
24/07:50pm 19.5 16.2 14.1 71 3.2 NW 24 28 13 15 - - 0.0
24/07:40pm 19.5 16.2 14.0 70 3.3 NW 24 26 13 14 - - 0.0
24/07:30pm 19.6 15.6 14.0 70 3.3 NW 28 32 15 17 - - 0.0
24/07:20pm 19.6 16.3 14.1 70 3.3 NW 24 26 13 14 - - 0.0
24/07:10pm 19.5 16.2 14.1 71 3.2 NW 24 28 13 15 - - 0.0
24/07:00pm 19.6 16.0 14.2 71 3.2 NW 26 28 14 15 - - 0.0
24/06:50pm 19.8 15.4 14.2 70 3.4 NW 30 35 16 19 - - 0.0
24/06:40pm 19.8 15.9 14.3 70 3.3 NW 28 33 15 18 - - 0.0
24/06:30pm 20.0 15.7 14.3 69 3.4 NW 30 33 16 18 - - 0.0
24/06:20pm 20.3 15.5 13.9 66 3.8 NW 32 33 17 18 - - 0.0
24/06:10pm 20.6 15.1 13.6 64 4.2 NW 35 43 19 23 - - 0.0
24/06:00pm 20.8 15.9 13.6 63 4.3 NW 32 35 17 19 - - 0.0
24/05:50pm 21.2 16.0 13.5 61 4.6 NW 33 37 18 20 - - 0.0
24/05:40pm 21.5 17.1 13.0 58 5.0 NW 28 30 15 16 - - 0.0
24/05:30pm 21.7 18.1 12.9 57 5.2 NW 24 26 13 14 - - 0.0
24/05:20pm 21.8 18.5 12.8 56 5.3 WNW 22 24 12 13 - - 0.0
24/05:10pm 22.1 18.1 13.1 56 5.3 WNW 26 32 14 17 - - 0.0
24/05:00pm 22.4 17.9 12.6 54 5.8 NW 28 35 15 19 - - 0.0
24/04:50pm 22.4 16.9 12.5 53 5.8 NW 33 43 18 23 - - 0.0
24/04:40pm 22.5 17.6 12.7 54 5.8 NW 30 33 16 18 - - 0.0
24/04:30pm 22.5 18.0 12.7 54 5.8 NW 28 32 15 17 - - 0.0
24/04:20pm 22.6 17.4 12.9 54 5.8 NW 32 37 17 20 - - 0.0
24/04:10pm 22.5 17.9 12.4 52 5.9 NW 28 33 15 18 - - 0.0
24/04:00pm 22.5 19.5 12.6 53 5.8 NW 20 28 11 15 - - 0.0
24/03:50pm 22.4 19.0 12.6 54 5.8 WNW 22 26 12 14 - - 0.0
24/03:40pm 22.5 19.4 12.3 52 6.0 WNW 20 24 11 13 - - 0.0
24/03:30pm 22.4 18.6 12.4 53 5.9 WNW 24 26 13 14 - - 0.0
24/03:20pm 22.4 17.3 11.9 51 6.1 WNW 30 35 16 19 - - 0.0
24/03:10pm 22.6 18.0 12.2 51 6.1 WNW 28 33 15 18 - - 0.0
24/03:00pm 22.9 17.9 12.1 50 6.3 NW 30 35 16 19 - - 0.0
24/02:50pm 22.9 19.0 12.2 51 6.3 NW 24 32 13 17 - - 0.0
24/02:40pm 22.5 16.5 12.0 51 6.1 NW 35 37 19 20 - - 0.0
24/02:30pm 22.7 16.7 12.1 51 6.2 NW 35 41 19 22 - - 0.0
24/02:20pm 23.1 17.2 12.3 50 6.4 NW 35 41 19 22 - - 0.0
24/02:10pm 23.3 18.0 12.5 50 6.4 NW 32 37 17 20 - - 0.0
24/02:00pm 22.6 16.8 12.7 53 5.8 NW 35 41 19 22 - - 0.0
24/01:50pm 22.5 15.0 12.6 53 5.8 WNW 44 50 24 27 - - 0.0
24/01:40pm 23.0 17.0 12.1 50 6.4 WNW 35 46 19 25 - - 0.0
24/01:30pm 22.7 17.0 13.0 54 5.8 WNW 35 37 19 20 - - 0.0
24/01:20pm 22.3 16.1 12.6 54 5.7 WNW 37 43 20 23 - - 0.0
24/01:10pm 22.4 16.3 12.9 55 5.6 WNW 37 41 20 22 - - 0.0
24/01:00pm 22.1 16.1 13.3 57 5.2 WNW 37 48 20 26 - - 0.0
24/12:50pm 22.0 16.3 12.9 56 5.4 WNW 35 39 19 21 - - 0.0
24/12:40pm 21.4 15.0 13.1 59 4.9 WNW 39 43 21 23 - - 0.0
24/12:30pm 21.3 15.2 12.9 58 5.0 WNW 37 44 20 24 - - 0.0
24/12:20pm 21.4 16.9 12.6 57 5.2 WNW 28 35 15 19 - - 0.0
24/12:10pm 20.8 14.9 12.4 58 4.9 W 35 41 19 22 - - 0.0
24/12:00pm 20.5 15.1 12.7 61 4.6 W 33 39 18 21 - - 0.0
24/11:50am 20.4 15.6 12.8 61 4.5 WNW 30 35 16 19 - - 0.0
24/11:40am 20.3 16.9 12.5 61 4.5 WNW 22 30 12 16 - - 0.0
24/11:30am 20.1 16.4 12.8 63 4.3 WNW 24 32 13 17 - - 0.0
24/11:20am 19.8 15.3 12.7 63 4.1 W 28 33 15 18 - - 0.0
24/11:10am 19.2 13.8 12.8 66 3.7 W 33 37 18 20 - - 0.0
24/11:00am 18.7 13.4 13.2 70 3.2 W 33 39 18 21 - - 0.0
24/10:50am 18.4 15.0 13.6 73 2.8 W 24 33 13 18 - - 0.0
24/10:40am 18.3 14.4 13.3 72 2.9 WNW 26 37 14 20 - - 0.0
24/10:30am 18.1 15.0 13.4 74 2.8 W 22 37 12 20 - - 0.0
24/10:20am 18.0 14.9 13.3 74 2.7 W 22 32 12 17 - - 0.0
24/10:10am 18.3 13.3 13.3 72 2.9 W 32 44 17 24 - - 0.0
24/10:00am 18.3 12.1 12.8 70 3.2 W 37 46 20 25 - - 0.0
24/09:50am 18.2 11.4 13.2 72 2.9 W 41 50 22 27 - - 0.0
24/09:40am 18.5 13.2 12.6 68 3.4 WSW 32 39 17 21 - - 0.0
24/09:30am 18.3 14.1 12.4 68 3.4 WSW 26 32 14 17 - - 0.0
24/09:20am 17.8 14.9 12.3 70 3.2 WSW 19 22 10 12 - - 0.0
24/09:10am 17.6 15.2 12.5 72 2.9 W 17 24 9 13 - - 0.0
24/09:00am 17.8 16.4 13.3 75 2.6 W 13 19 7 10 - - 0.0
24/08:50am 18.1 16.9 12.8 71 3.1 WSW 11 13 6 7 - - 0.0
24/08:40am 17.9 16.9 12.4 70 3.2 W 9 13 5 7 - - 0.0
24/08:30am 17.3 16.2 13.2 77 2.4 WNW 11 19 6 10 - - 0.0
24/08:20am 17.9 16.3 15.0 83 1.7 W 17 19 9 10 - - 0.0
24/08:10am 18.7 17.3 13.5 72 3.1 WSW 13 17 7 9 - - 0.0
24/08:00am 18.5 16.8 13.7 73 2.8 WSW 15 19 8 10 - - 0.0
24/07:50am 18.0 16.6 13.4 74 2.7 W 13 17 7 9 - - 0.0
24/07:40am 17.6 16.2 13.3 76 2.5 W 13 15 7 8 - - 0.0
24/07:30am 16.9 15.2 13.5 80 2.0 W 15 17 8 9 - - 0.0
24/07:20am 17.4 15.2 14.4 82 1.8 W 19 22 10 12 - - 0.0
24/07:10am 18.3 16.4 13.1 71 3.0 W 15 19 8 10 - - 0.0
24/07:00am 17.5 16.2 13.6 78 2.3 WNW 13 13 7 7 - - 0.0
24/06:50am 17.2 15.9 13.6 79 2.1 WNW 13 17 7 9 - - 0.0
24/06:40am 17.1 15.7 13.3 78 2.2 WNW 13 15 7 8 - - 0.0
24/06:30am 16.4 15.6 13.9 85 1.5 NW 11 15 6 8 - - 0.0
24/06:20am 16.4 13.9 14.1 86 1.4 WNW 20 24 11 13 - - 0.0
24/06:10am 17.9 17.5 14.2 79 2.2 WSW 9 13 5 7 - - 0.0
24/06:00am 17.5 17.1 13.0 75 2.6 S 7 9 4 5 - - 0.0
24/05:50am 18.1 17.4 14.3 78 2.3 SE 11 11 6 6 - - 0.0
24/05:40am 20.5 20.9 14.7 69 3.5 SSW 6 7 3 4 - - 0.0
24/05:30am 20.8 20.2 12.2 58 5.0 SW 7 7 4 4 - - 0.0
24/05:20am 19.0 18.8 13.0 68 3.5 SW 6 7 3 4 - - 0.0
24/05:10am 19.7 20.4 14.4 71 3.2 SW 4 4 2 2 - - 0.0
24/05:00am 19.8 19.9 12.7 63 4.1 SW 4 6 2 3 - - 0.0
24/04:50am 19.6 19.6 12.4 63 4.2 WSW 4 6 2 3 - - 0.0
24/04:40am 18.8 20.2 14.3 75 2.7 CALM 0 2 0 1 - - 0.0
24/04:30am 20.3 20.9 13.0 63 4.3 W 2 4 1 2 - - 0.0
24/04:20am 20.3 20.0 12.6 61 4.5 NW 6 7 3 4 - - 0.0
24/04:10am 20.5 20.1 12.9 61 4.5 WNW 7 9 4 5 - - 0.0
24/04:00am 20.1 19.7 12.3 61 4.5 WNW 6 7 3 4 - - 0.0
24/03:50am 19.2 18.9 12.6 65 3.8 NW 6 6 3 3 - - 0.0
24/03:40am 18.5 18.5 13.5 72 2.9 WSW 6 6 3 3 - - 0.0
24/03:30am 19.7 20.7 14.4 71 3.2 SSW 2 4 1 2 - - 0.0
24/03:20am 20.1 20.3 12.9 63 4.2 WNW 4 7 2 4 - - 0.0
24/03:10am 20.0 19.7 13.2 65 4.0 NW 7 7 4 4 - - 0.0
24/03:00am 20.4 20.2 13.5 64 4.1 NW 7 7 4 4 - - 0.0
24/02:50am 20.6 20.5 13.3 63 4.3 NW 6 7 3 4 - - 0.0
24/02:40am 20.6 20.4 13.1 62 4.4 WNW 6 6 3 3 - - 0.0
24/02:30am 20.8 21.0 13.2 61 4.5 W 4 4 2 2 - - 0.0
24/02:20am 20.7 20.5 12.9 61 4.6 WNW 6 7 3 4 - - 0.0
24/02:10am 20.5 20.1 12.9 61 4.5 W 7 7 4 4 - - 0.0
24/02:00am 20.4 19.6 12.9 62 4.4 WNW 9 11 5 6 - - 0.0
24/01:50am 20.4 19.2 12.9 62 4.4 WNW 11 11 6 6 - - 0.0
24/01:40am 20.6 19.8 13.0 61 4.5 WNW 9 9 5 5 - - 0.0
24/01:30am 20.7 19.9 12.8 60 4.6 WNW 9 9 5 5 - - 0.0
24/01:20am 20.7 19.5 12.9 61 4.6 WNW 11 11 6 6 - - 0.0
24/01:10am 21.1 19.9 12.8 59 4.9 WNW 11 13 6 7 - - 0.0
24/01:00am 21.2 20.0 12.8 58 4.9 WNW 11 13 6 7 - - 0.0
24/12:50am 21.1 19.4 12.6 58 5.0 WNW 13 13 7 7 - - 0.0
24/12:40am 21.0 19.0 12.7 59 4.9 WNW 15 15 8 8 - - 0.0
24/12:30am 20.8 18.4 12.7 59 4.7 WNW 17 17 9 9 - - 0.0
24/12:20am 20.8 18.5 12.9 60 4.6 WNW 17 17 9 9 - - 0.0
24/12:10am 20.7 18.4 13.1 61 4.5 WNW 17 17 9 9 - - 0.0
24/12:00am 20.5 18.2 13.1 62 4.4 WNW 17 17 9 9 - - 0.0
 
Date/Time
EDT
Temp
°C
App
Temp
°C
Dew
Point
°C
Rel
Hum
%
Delta-T
°C
Wind Press
QNH
hPa
Press
MSL
hPa
Rain since
9am
mm
Dir  Spd
km/h
Gust
km/h
Spd
kts
Gust
kts
23/11:50pm 20.3 17.6 13.0 63 4.3 WNW 19 19 10 10 - - 0.0
23/11:40pm 20.2 17.6 13.1 63 4.2 WNW 19 19 10 10 - - 0.0
23/11:30pm 20.1 17.5 13.1 64 4.1 WNW 19 19 10 10 - - 0.0
23/11:20pm 19.8 17.1 13.0 65 4.0 WNW 19 19 10 10 - - 0.0
23/11:10pm 20.2 17.6 13.1 63 4.2 WNW 19 19 10 10 - - 0.0
23/11:00pm 20.2 17.9 13.0 63 4.2 WNW 17 20 9 11 - - 0.0
23/10:50pm 20.5 17.8 13.0 62 4.4 WNW 19 19 10 10 - - 0.0
23/10:40pm 20.7 18.4 13.0 61 4.5 W 17 17 9 9 - - 0.0
23/10:30pm 20.7 18.4 13.1 61 4.5 W 17 19 9 10 - - 0.0
23/10:20pm 20.7 18.4 13.0 61 4.5 W 17 19 9 10 - - 0.0
23/10:10pm 20.7 18.4 13.1 61 4.5 W 17 19 9 10 - - 0.0
23/10:00pm 20.6 18.4 13.2 62 4.4 W 17 17 9 9 - - 0.0
23/09:50pm 20.4 18.6 13.4 64 4.1 W 15 17 8 9 - - 0.0
23/09:40pm 20.5 18.7 13.3 63 4.3 W 15 17 8 9 - - 0.0
23/09:30pm 20.5 19.0 13.0 62 4.4 W 13 13 7 7 - - 0.0
23/09:20pm 20.4 19.3 13.0 62 4.4 W 11 11 6 6 - - 0.0
23/09:00pm 21.1 20.6 12.7 58 4.9 WNW 7 9 4 5 - - 0.0
23/08:50pm 21.0 20.5 12.6 58 4.9 WNW 7 7 4 4 - - 0.0
23/08:40pm 20.9 20.7 12.9 60 4.7 NW 6 6 3 3 - - 0.0
23/08:30pm 21.0 21.1 12.7 59 4.9 WNW 4 6 2 3 - - 0.0
23/08:20pm 20.8 21.2 12.6 59 4.8 N 2 4 1 2 - - 0.0
23/08:10pm 20.8 20.9 12.7 59 4.7 ESE 4 6 2 3 - - 0.0
23/08:00pm 20.8 20.5 12.8 60 4.7 SSE 6 7 3 4 - - 0.0
23/07:50pm 20.7 20.3 12.9 61 4.6 S 7 9 4 5 - - 0.0
23/07:40pm 20.6 19.9 13.1 62 4.4 S 9 11 5 6 - - 0.0
23/07:30pm 20.8 20.2 13.4 62 4.4 SSE 9 9 5 5 - - 0.0
23/07:20pm 20.9 20.7 12.9 60 4.7 SSE 6 7 3 4 - - 0.0
23/07:10pm 20.9 21.1 12.9 60 4.7 S 4 4 2 2 - - 0.0
23/07:00pm 21.0 22.0 13.2 61 4.6 CALM 0 0 0 0 - - 0.0
23/06:50pm 21.2 22.1 12.9 59 4.9 CALM 0 0 0 0 - - 0.0
23/06:40pm 21.3 22.1 13.6 61 4.6 WNW 2 4 1 2 - - 0.0
23/06:30pm 21.2 21.5 13.3 60 4.7 WNW 4 6 2 3 - - 0.0
23/06:20pm 21.2 21.0 13.1 60 4.8 WNW 6 7 3 4 - - 0.0
23/06:10pm 21.3 22.0 13.3 60 4.7 NW 2 4 1 2 - - 0.0
23/06:00pm 21.3 21.8 12.9 58 5.0 WNW 2 4 1 2 - - 0.0
23/05:50pm 21.3 21.8 12.8 58 5.0 W 2 6 1 3 - - 0.0
23/05:40pm 21.3 21.5 12.9 58 5.0 W 4 6 2 3 - - 0.0
23/05:30pm 21.2 21.6 13.7 62 4.5 W 4 6 2 3 - - 0.0
23/05:20pm 21.0 21.9 14.1 64 4.1 W 2 4 1 2 - - 0.0
23/05:10pm 21.0 21.2 14.1 64 4.1 WNW 6 7 3 4 - - 0.0
23/05:00pm 21.0 21.0 14.2 65 4.1 WNW 7 7 4 4 - - 0.0
23/04:50pm 21.0 20.6 14.0 64 4.2 WNW 9 9 5 5 - - 0.0
23/04:40pm 20.9 20.8 14.0 64 4.1 WNW 7 9 4 5 - - 0.0
23/04:30pm 21.1 20.7 14.1 64 4.2 WNW 9 11 5 6 - - 0.0
23/04:20pm 21.2 21.8 14.3 64 4.2 NW 4 7 2 4 - - 0.0
23/04:10pm 21.1 20.9 13.7 62 4.4 W 7 11 4 6 - - 0.0
23/04:00pm 21.1 20.8 14.4 65 4.0 WNW 9 9 5 5 - - 0.0
23/03:50pm 21.2 20.4 13.9 63 4.4 NW 11 15 6 8 - - 0.0
23/03:40pm 21.3 20.6 14.4 64 4.2 NW 11 13 6 7 - - 0.0
23/03:30pm 21.9 22.0 13.9 60 4.8 N 6 7 3 4 - - 0.0
23/03:20pm 22.1 21.8 13.4 57 5.2 ENE 7 9 4 5 - - 0.0
23/03:10pm 22.3 21.9 13.0 55 5.5 ENE 7 9 4 5 - - 0.0
23/03:00pm 22.2 21.5 13.1 56 5.4 ENE 9 13 5 7 - - 0.0
23/02:50pm 22.7 22.2 13.7 56 5.4 ENE 9 11 5 6 - - 0.0
23/02:40pm 22.6 23.1 14.0 58 5.2 N 4 6 2 3 - - 0.0
23/02:30pm 22.0 22.2 13.2 57 5.2 W 4 6 2 3 - - 0.0
23/02:20pm 21.4 21.4 13.5 60 4.7 SW 6 11 3 6 - - 0.0
23/02:10pm 20.6 20.0 13.5 63 4.2 W 9 11 5 6 - - 0.0
23/02:00pm 20.1 18.6 14.1 68 3.6 NW 15 22 8 12 - - 0.0
23/01:50pm 20.2 17.0 13.0 63 4.2 NW 22 26 12 14 - - 0.0
23/01:40pm 20.4 18.0 13.7 65 4.0 WNW 19 20 10 11 - - 0.0
23/01:30pm 20.7 19.3 13.5 63 4.3 NW 13 15 7 8 - - 0.0
23/01:20pm 20.8 19.9 13.7 64 4.2 NW 11 11 6 6 - - 0.0
23/01:10pm 20.9 20.7 13.5 62 4.4 NNW 7 9 4 5 - - 0.0
23/01:00pm 20.9 19.8 13.0 60 4.7 NNW 11 13 6 7 - - 0.0
23/12:50pm 21.0 20.6 12.9 60 4.8 WNW 7 11 4 6 - - 0.0
23/12:40pm 21.1 20.6 12.8 59 4.9 NW 7 9 4 5 - - 0.0
23/12:30pm 21.3 20.3 12.2 56 5.3 NNW 9 9 5 5 - - 0.0
23/12:20pm 22.0 22.4 13.7 59 5.0 N 4 7 2 4 - - 0.0
23/12:10pm 21.3 21.8 14.0 63 4.4 ENE 4 6 2 3 - - 0.0
23/12:00pm 20.8 21.2 13.8 64 4.2 E 4 6 2 3 - - 0.0
23/11:50am 20.0 20.3 14.6 71 3.3 SE 6 9 3 5 - - 0.0
23/11:40am 20.0 20.2 14.3 69 3.4 SSE 6 6 3 3 - - 0.0
23/11:30am 20.1 20.7 14.3 69 3.5 E 4 7 2 4 - - 0.0
23/11:20am 19.3 19.2 13.4 68 3.5 ENE 6 7 3 4 - - 0.0
23/11:10am 18.2 18.2 14.1 77 2.4 ENE 7 11 4 6 - - 0.0
23/11:00am 18.3 17.9 14.1 76 2.5 E 9 11 5 6 - - 0.0
23/10:50am 18.7 18.4 14.3 75 2.6 ESE 9 11 5 6 - - 0.0
23/10:40am 18.3 17.4 13.7 74 2.7 E 11 15 6 8 - - 0.0
23/10:30am 17.8 16.7 14.2 79 2.1 E 13 17 7 9 - - 0.0
23/10:20am 17.5 16.1 14.5 82 1.8 ESE 15 19 8 10 - - 0.0
23/10:10am 17.2 15.5 13.5 79 2.2 ESE 15 15 8 8 - - 0.0
23/10:00am 17.0 15.3 13.7 81 1.9 ESE 15 17 8 9 - - 4.0
23/09:50am 16.6 14.5 13.6 82 1.8 SE 17 19 9 10 - - 4.0
23/09:40am 16.4 13.7 13.6 83 1.6 SE 20 20 11 11 - - 4.0
23/09:30am 16.2 14.6 13.8 86 1.4 ESE 15 19 8 10 - - 4.0
23/09:20am 15.7 14.0 13.6 87 1.2 ESE 15 17 8 9 - - 4.0
23/09:00am 15.6 13.6 13.9 90 1.0 SE 17 20 9 11 - - 4.0
23/08:50am 15.2 12.5 13.5 89 1.0 SE 20 20 11 11 - - 4.0
23/08:40am 15.0 12.2 13.2 89 1.0 SE 20 22 11 12 - - 4.0
23/08:30am 15.0 11.8 13.2 89 1.0 SE 22 24 12 13 - - 4.0
23/08:20am 14.9 11.7 13.1 89 1.0 SE 22 24 12 13 - - 4.0
23/08:10am 14.9 11.6 12.9 88 1.1 SE 22 24 12 13 - - 4.0
23/08:00am 14.8 11.5 12.8 88 1.1 SE 22 24 12 13 - - 4.0
23/07:50am 14.6 11.3 12.8 89 1.0 SE 22 24 12 13 - - 4.0
23/07:40am 14.4 11.1 12.7 89 1.0 SSE 22 24 12 13 - - 4.0
23/07:30am 14.4 10.7 12.7 89 1.0 SE 24 26 13 14 - - 4.0
23/07:20am 14.3 10.9 12.6 89 1.0 SSE 22 24 12 13 - - 4.0
23/07:10am 14.2 10.4 12.4 89 1.0 SE 24 26 13 14 - - 4.0
23/07:00am 14.2 10.8 12.4 89 1.0 SE 22 24 12 13 - - 4.0
23/06:50am 14.3 10.8 12.3 88 1.1 SE 22 24 12 13 - - 4.0
23/06:40am 14.4 11.0 12.4 88 1.1 SSE 22 24 12 13 - - 4.0
23/06:30am 14.6 10.8 12.4 87 1.2 SE 24 24 13 13 - - 4.0
23/06:20am 14.3 10.8 12.3 88 1.1 SSE 22 24 12 13 - - 4.0
23/06:10am 14.3 10.5 12.3 88 1.1 SE 24 24 13 13 - - 4.0
23/06:00am 14.3 10.5 12.4 88 1.1 SE 24 24 13 13 - - 4.0
23/05:50am 14.2 10.8 12.4 89 1.0 SSE 22 24 12 13 - - 4.0
23/05:40am 13.9 10.5 12.4 91 0.8 SSE 22 24 12 13 - - 4.0
23/05:30am 14.0 10.2 12.4 90 0.9 SE 24 26 13 14 - - 4.0
23/05:20am 14.1 10.3 12.5 90 0.9 SE 24 24 13 13 - - 4.0
23/05:10am 14.1 9.9 12.4 89 1.0 SSE 26 28 14 15 - - 4.0
23/05:00am 13.8 9.2 12.4 91 0.8 SE 28 30 15 16 - - 4.0
23/04:50am 13.8 9.2 12.4 91 0.8 SE 28 32 15 17 - - 4.0
23/04:40am 13.8 8.5 12.4 91 0.8 SE 32 33 17 18 - - 4.0
23/04:30am 13.7 8.8 12.4 92 0.7 SE 30 33 16 18 - - 4.0
23/04:20am 13.7 9.1 12.4 92 0.7 SE 28 30 15 16 - - 4.0
23/04:10am 13.7 9.9 12.5 92 0.7 SE 24 26 13 14 - - 4.0
23/04:00am 13.8 10.1 12.6 92 0.7 SE 24 26 13 14 - - 4.0
23/03:50am 14.0 9.5 12.6 91 0.8 SE 28 30 15 16 - - 4.0
23/03:40am 14.0 9.5 12.6 91 0.8 SE 28 30 15 16 - - 4.0
23/03:30am 14.2 9.7 12.6 90 0.9 SE 28 28 15 15 - - 4.0
23/03:20am 14.5 9.6 12.6 88 1.1 SE 30 32 16 17 - - 4.0
23/03:10am 14.7 10.7 12.9 89 1.0 SE 26 28 14 15 - - 4.0
23/03:00am 14.8 10.8 12.9 88 1.1 SE 26 26 14 14 - - 4.0
23/02:50am 14.8 10.8 12.9 88 1.1 SE 26 28 14 15 - - 4.0
23/02:40am 15.0 11.4 12.9 87 1.2 SE 24 28 13 15 - - 4.0
23/02:30am 15.1 11.5 13.0 87 1.2 SE 24 26 13 14 - - 4.0
23/02:20am 15.0 11.4 13.0 88 1.1 SE 24 26 13 14 - - 4.0
23/02:10am 15.1 11.1 12.9 87 1.3 SE 26 26 14 14 - - 4.0
23/02:00am 15.1 11.5 12.9 87 1.3 SSE 24 26 13 14 - - 4.0
23/01:50am 15.1 11.4 12.8 86 1.3 SSE 24 26 13 14 - - 4.0
23/01:40am 14.9 11.6 12.8 87 1.2 SSE 22 24 12 13 - - 4.0
23/01:30am 15.0 11.7 12.9 87 1.2 SSE 22 22 12 12 - - 4.0
23/01:20am 15.5 12.2 12.9 84 1.5 SSE 22 22 12 12 - - 4.0
23/01:00am 15.6 12.7 12.8 83 1.6 SSE 20 20 11 11 - - 4.0
23/12:50am 15.6 12.7 12.9 84 1.6 SE 20 20 11 11 - - 4.0
23/12:40am 15.4 12.1 12.8 84 1.5 SE 22 22 12 12 - - 4.0
23/12:30am 15.7 12.8 13.0 84 1.6 SE 20 22 11 12 - - 4.0
23/12:20am 16.0 13.1 12.9 82 1.8 SE 20 20 11 11 - - 4.0
23/12:10am 15.9 13.6 12.9 82 1.7 SE 17 19 9 10 - - 4.0
23/12:00am 16.0 14.1 13.0 82 1.7 SE 15 17 8 9 - - 4.0
 
Date/Time
EDT
Temp
°C
App
Temp
°C
Dew
Point
°C
Rel
Hum
%
Delta-T
°C
Wind Press
QNH
hPa
Press
MSL
hPa
Rain since
9am
mm
Dir  Spd
km/h
Gust
km/h
Spd
kts
Gust
kts
22/11:50pm 16.1 13.8 12.9 81 1.8 SE 17 17 9 9 - - 4.0
22/11:40pm 16.1 14.2 12.9 81 1.8 SE 15 17 8 9 - - 4.0
22/11:30pm 16.2 14.6 12.9 81 1.9 SE 13 15 7 8 - - 4.0
22/11:20pm 16.2 14.3 13.0 81 1.8 SE 15 17 8 9 - - 4.0
22/11:10pm 16.1 13.8 12.9 81 1.8 SE 17 19 9 10 - - 4.0
22/11:00pm 16.2 13.5 12.9 81 1.9 SE 19 19 10 10 - - 4.0
22/10:50pm 16.3 14.0 13.0 81 1.9 SE 17 19 9 10 - - 4.0
22/10:40pm 16.3 13.7 13.1 81 1.9 SE 19 19 10 10 - - 4.0
22/10:30pm 16.3 14.0 13.1 81 1.9 SE 17 19 9 10 - - 4.0
22/10:20pm 16.4 13.6 13.3 82 1.8 ESE 20 24 11 13 - - 4.0
22/10:10pm 16.5 12.9 13.2 81 1.9 ESE 24 26 13 14 - - 4.0
22/10:00pm 16.4 12.8 13.1 81 1.9 SE 24 26 13 14 - - 4.0
22/09:50pm 16.5 13.7 13.3 81 1.9 SE 20 24 11 13 - - 4.0
22/09:40pm 16.7 13.7 13.6 82 1.8 SE 22 24 12 13 - - 4.0
22/09:30pm 16.7 14.0 13.4 81 1.9 SE 20 24 11 13 - - 4.0
22/09:20pm 16.7 13.7 13.8 83 1.7 SE 22 22 12 12 - - 4.0
22/09:10pm 16.6 14.2 13.8 83 1.6 ESE 19 20 10 11 - - 4.0
22/09:00pm 16.8 14.1 13.5 81 1.9 ESE 20 22 11 12 - - 4.0
22/08:50pm 17.2 14.4 13.3 78 2.3 SE 20 22 11 12 - - 4.0

Other formats

Comma delimited format used in spreadsheet applications
http://www.bom.gov.au/fwo/IDN60801/IDN60801.99763.axf

JavaScript Object Notation format (JSON) in row-major order
http://www.bom.gov.au/fwo/IDN60801/IDN60801.99763.json

Data quality

Most of these data are generated automatically and are frequently updated. Quality checks on data are not normally performed. It is possible for incorrect values to appear. Refer to information at About Latest Weather Observations and please check the disclaimer before using these data.